Time;durP1;ratioP1;P1;durP2;ratioP2;P2;SDS_P1;SDS_P2;PMS_P1;PMS_P2;Temp;Humidity;BMP_temperature;BMP_pressure;BME280_temperature;BME280_humidity;BME280_pressure;Samples;Min_cycle;Max_cycle;Signal;HPM_P1;HPM_P2
2022/04/21 00:01:31;;;;;;;;;;;8.10;99.90;;;;;;5001775;28;20440;-69
2022/04/21 00:03:56;;;;;;;;;;;8.00;99.90;;;;;;4998449;28;19918;-69
2022/04/21 00:06:22;;;;;;;;;;;8.00;99.90;;;;;;4999719;28;19922;-69
2022/04/21 00:08:47;;;;;;;;;;;7.90;99.90;;;;;;5000113;28;20003;-69
2022/04/21 00:11:13;;;;;;;;;;;7.90;99.90;;;;;;5001843;28;20378;-69
2022/04/21 00:13:38;;;;;;;;;;;7.90;99.90;;;;;;5002073;28;19920;-69
2022/04/21 00:16:04;;;;;;;;;;;7.80;99.90;;;;;;5000573;28;19927;-69
2022/04/21 00:18:30;;;;;;;;;;;7.80;99.90;;;;;;5001544;28;20386;-69
2022/04/21 00:20:58;;;;;;;;;;;7.80;99.90;;;;;;5001909;28;19913;-69
2022/04/21 00:23:27;;;;;;;;;;;7.70;99.90;;;;;;5000160;28;19909;-69
2022/04/21 00:25:53;;;;;;;;;;;7.70;99.90;;;;;;5002937;28;19921;-69
2022/04/21 00:28:19;;;;;;;;;;;7.70;99.90;;;;;;5000724;28;19913;-69
2022/04/21 00:30:45;;;;;;;;;;;7.60;99.90;;;;;;5001470;28;19914;-69
2022/04/21 00:33:11;;;;;;;;;;;7.60;99.90;;;;;;5001337;28;19917;-69
2022/04/21 00:35:36;;;;;;;;;;;7.50;99.90;;;;;;5000814;28;19917;-69
2022/04/21 00:38:01;;;;;;;;;;;7.50;99.90;;;;;;4999890;28;20381;-69
2022/04/21 00:40:28;;;;;;;;;;;7.40;99.90;;;;;;5001377;28;20362;-68
2022/04/21 00:42:54;;;;;;;;;;;7.40;99.90;;;;;;5001614;28;19996;-69
2022/04/21 00:45:19;;;;;;;;;;;7.40;99.90;;;;;;5000482;28;20370;-68
2022/04/21 00:47:45;;;;;;;;;;;7.30;99.90;;;;;;5001641;28;19964;-68
2022/04/21 00:50:13;;;;;;;;;;;7.30;99.90;;;;;;5000624;28;19953;-68
2022/04/21 00:52:39;;;;;;;;;;;7.30;99.90;;;;;;5000936;28;19957;-69
2022/04/21 00:55:05;;;;;;;;;;;7.20;99.90;;;;;;4999186;28;20327;-68
2022/04/21 00:57:31;;;;;;;;;;;7.20;99.90;;;;;;5002148;28;19924;-68
2022/04/21 00:59:56;;;;;;;;;;;7.20;99.90;;;;;;5000653;28;20012;-68
2022/04/21 01:05:07;;;;;;;;;;;7.10;99.90;;;;;;5000877;28;19970;-68
2022/04/21 01:07:34;;;;;;;;;;;7.10;99.90;;;;;;5000307;28;20298;-68
2022/04/21 01:09:59;;;;;;;;;;;7.10;99.90;;;;;;5000173;28;19917;-69
2022/04/21 01:12:25;;;;;;;;;;;7.10;99.90;;;;;;4999627;28;19921;-68
2022/04/21 01:14:50;;;;;;;;;;;7.00;99.90;;;;;;4999720;28;19917;-68
2022/04/21 01:17:16;;;;;;;;;;;7.00;99.90;;;;;;4999568;28;19925;-68
2022/04/21 01:19:41;;;;;;;;;;;7.00;99.90;;;;;;5000680;28;20005;-69
2022/04/21 01:22:07;;;;;;;;;;;7.00;99.90;;;;;;4999188;28;19925;-68
2022/04/21 01:24:33;;;;;;;;;;;6.90;99.90;;;;;;4999993;28;20387;-68
2022/04/21 01:27:00;;;;;;;;;;;6.90;99.90;;;;;;4999103;28;19962;-68
2022/04/21 01:29:27;;;;;;;;;;;6.90;99.90;;;;;;5000598;28;19964;-68
2022/04/21 01:31:53;;;;;;;;;;;6.80;99.90;;;;;;4999849;28;20480;-69
2022/04/21 01:34:19;;;;;;;;;;;6.90;99.90;;;;;;5000104;28;19921;-68
2022/04/21 01:42:16;;;;;;;;;;;6.80;99.90;;;;;;4999171;28;19921;-69
2022/04/21 01:44:43;;;;;;;;;;;6.70;99.90;;;;;;5000085;28;20003;-69
2022/04/21 01:47:08;;;;;;;;;;;6.80;99.90;;;;;;5000090;28;20359;-68
2022/04/21 01:49:34;;;;;;;;;;;6.70;99.90;;;;;;5000451;28;19917;-68
2022/04/21 01:51:59;;;;;;;;;;;6.70;99.90;;;;;;5000635;28;19917;-68
2022/04/21 01:54:25;;;;;;;;;;;6.70;99.90;;;;;;4999355;28;20325;-69
2022/04/21 01:56:50;;;;;;;;;;;6.70;99.90;;;;;;4999318;28;19969;-68
2022/04/21 01:59:16;;;;;;;;;;;6.60;99.90;;;;;;5001028;28;20394;-68
2022/04/21 02:01:41;;;;;;;;;;;6.60;99.90;;;;;;5000577;28;19917;-68
2022/04/21 02:04:06;;;;;;;;;;;6.60;99.90;;;;;;5000465;28;19924;-69
2022/04/21 02:06:32;;;;;;;;;;;6.50;99.90;;;;;;4999363;28;19980;-69
2022/04/21 02:08:58;;;;;;;;;;;6.60;99.90;;;;;;5000491;28;19940;-69
2022/04/21 02:11:24;;;;;;;;;;;6.50;99.90;;;;;;4998467;28;20022;-69
2022/04/21 02:13:50;;;;;;;;;;;6.50;99.90;;;;;;4998833;28;20357;-69
2022/04/21 02:16:15;;;;;;;;;;;6.50;99.90;;;;;;4999755;28;19965;-69
2022/04/21 02:18:40;;;;;;;;;;;6.50;99.90;;;;;;4999700;28;19976;-68
2022/04/21 02:21:06;;;;;;;;;;;6.50;99.90;;;;;;4999463;28;19945;-68
2022/04/21 02:23:31;;;;;;;;;;;6.50;99.90;;;;;;4999032;28;19928;-69
2022/04/21 02:25:57;;;;;;;;;;;6.50;99.90;;;;;;4999846;28;20423;-68
2022/04/21 02:28:23;;;;;;;;;;;6.50;99.90;;;;;;4998729;28;20041;-68
2022/04/21 02:30:48;;;;;;;;;;;6.50;99.90;;;;;;4997908;28;19920;-68
2022/04/21 02:33:14;;;;;;;;;;;6.50;99.90;;;;;;5000124;28;19914;-69
2022/04/21 02:35:39;;;;;;;;;;;6.60;99.90;;;;;;4999748;28;19917;-69
2022/04/21 02:38:05;;;;;;;;;;;6.60;99.90;;;;;;4999739;28;20329;-69
2022/04/21 02:40:30;;;;;;;;;;;6.60;99.90;;;;;;4999487;28;19913;-68
2022/04/21 02:42:55;;;;;;;;;;;6.60;99.90;;;;;;4999255;28;20378;-68
2022/04/21 02:45:21;;;;;;;;;;;6.60;99.90;;;;;;4998630;28;19926;-68
2022/04/21 02:47:48;;;;;;;;;;;6.60;99.90;;;;;;4999701;28;19999;-68
2022/04/21 02:50:14;;;;;;;;;;;6.70;99.90;;;;;;4998245;28;19918;-68
2022/04/21 02:52:41;;;;;;;;;;;6.70;99.90;;;;;;4999162;28;19964;-68
2022/04/21 02:57:51;;;;;;;;;;;6.70;99.90;;;;;;5000046;28;19928;-68
2022/04/21 03:00:16;;;;;;;;;;;6.70;99.90;;;;;;4997443;28;19914;-68
2022/04/21 03:02:42;;;;;;;;;;;6.60;99.90;;;;;;4999321;28;19996;-68
2022/04/21 03:05:07;;;;;;;;;;;6.60;99.90;;;;;;4999177;28;19913;-68
2022/04/21 03:07:33;;;;;;;;;;;6.60;99.90;;;;;;4998344;28;19922;-68
2022/04/21 03:09:58;;;;;;;;;;;6.60;99.90;;;;;;4998560;28;19952;-68
2022/04/21 03:12:26;;;;;;;;;;;6.60;99.90;;;;;;4998661;28;19950;-68
2022/04/21 03:14:52;;;;;;;;;;;6.50;99.90;;;;;;4999194;28;19917;-68
2022/04/21 03:17:17;;;;;;;;;;;6.50;99.90;;;;;;4999908;28;20329;-68
2022/04/21 03:19:43;;;;;;;;;;;6.60;99.90;;;;;;5002466;28;19921;-68
2022/04/21 03:25:10;;;;;;;;;;;6.50;99.90;;;;;;4922359;29;19994;-68
2022/04/21 03:27:36;;;;;;;;;;;6.50;99.90;;;;;;4987202;28;19996;-68
2022/04/21 03:30:05;;;;;;;;;;;6.50;99.90;;;;;;5002803;28;20326;-68
2022/04/21 03:32:30;;;;;;;;;;;6.50;99.90;;;;;;5003285;28;19918;-68
2022/04/21 03:34:56;;;;;;;;;;;6.50;99.90;;;;;;5003017;28;19910;-68
2022/04/21 03:37:22;;;;;;;;;;;6.50;99.90;;;;;;5003989;28;19951;-68
2022/04/21 03:39:47;;;;;;;;;;;6.50;99.90;;;;;;5001332;28;19961;-68
2022/04/21 03:42:19;;;;;;;;;;;6.50;99.90;;;;;;5002689;28;19922;-69
2022/04/21 03:44:45;;;;;;;;;;;6.50;99.90;;;;;;5003757;28;20004;-68
2022/04/21 03:47:11;;;;;;;;;;;6.50;99.90;;;;;;5002989;28;20012;-68
2022/04/21 03:49:36;;;;;;;;;;;6.50;99.90;;;;;;5002562;28;20367;-68
2022/04/21 03:52:02;;;;;;;;;;;6.60;99.90;;;;;;5002635;28;19965;-68
2022/04/21 03:54:27;;;;;;;;;;;6.50;99.90;;;;;;5001714;28;19913;-68
2022/04/21 03:56:53;;;;;;;;;;;6.50;99.90;;;;;;5002194;28;19926;-68
2022/04/21 03:59:19;;;;;;;;;;;6.50;99.90;;;;;;5002835;28;20397;-68
2022/04/21 04:01:45;;;;;;;;;;;6.60;99.90;;;;;;5002345;28;20004;-68
2022/04/21 04:04:11;;;;;;;;;;;6.50;99.90;;;;;;5002477;28;19996;-69
2022/04/21 04:12:05;;;;;;;;;;;6.60;99.90;;;;;;5001120;28;19924;-68
2022/04/21 04:14:31;;;;;;;;;;;6.50;99.90;;;;;;5001113;28;19921;-68
2022/04/21 04:16:57;;;;;;;;;;;6.50;99.90;;;;;;5001301;28;19927;-69
2022/04/21 04:19:23;;;;;;;;;;;6.50;99.90;;;;;;5000470;28;19917;-68
2022/04/21 04:21:48;;;;;;;;;;;6.50;99.90;;;;;;5001726;28;19964;-68
2022/04/21 04:24:14;;;;;;;;;;;6.50;99.90;;;;;;4999724;28;19913;-68
2022/04/21 04:26:39;;;;;;;;;;;6.60;99.90;;;;;;5002384;28;19926;-69
2022/04/21 04:29:05;;;;;;;;;;;6.60;99.90;;;;;;5000849;28;19922;-69
2022/04/21 04:31:30;;;;;;;;;;;6.70;99.90;;;;;;5001892;28;19914;-69
2022/04/21 04:33:56;;;;;;;;;;;6.70;99.90;;;;;;5001832;28;19918;-70
2022/04/21 04:36:22;;;;;;;;;;;6.70;99.90;;;;;;5001474;28;19979;-67
2022/04/21 04:38:48;;;;;;;;;;;6.80;99.90;;;;;;5000390;28;19914;-68
2022/04/21 04:43:58;;;;;;;;;;;6.70;99.90;;;;;;5000709;28;19924;-68
2022/04/21 04:46:35;;;;;;;;;;;6.70;99.90;;;;;;5001536;28;19913;-67
2022/04/21 04:49:02;;;;;;;;;;;6.70;99.90;;;;;;5001417;28;19949;-66
2022/04/21 04:51:27;;;;;;;;;;;6.70;99.90;;;;;;4999776;28;19921;-66
2022/04/21 04:53:56;;;;;;;;;;;6.80;99.90;;;;;;4999483;28;19917;-66
2022/04/21 04:56:22;;;;;;;;;;;6.70;99.90;;;;;;4997837;28;20371;-67
2022/04/21 04:58:48;;;;;;;;;;;6.80;99.90;;;;;;4999644;28;19918;-67
2022/04/21 05:01:17;;;;;;;;;;;6.70;99.90;;;;;;4999801;28;20362;-66
2022/04/21 05:03:42;;;;;;;;;;;6.70;99.90;;;;;;4999336;28;20008;-66
2022/04/21 05:06:07;;;;;;;;;;;6.80;99.90;;;;;;4999219;28;20000;-66
2022/04/21 05:08:34;;;;;;;;;;;6.80;99.90;;;;;;4998627;28;19918;-66
2022/04/21 05:11:00;;;;;;;;;;;6.80;99.90;;;;;;4998213;28;19921;-67
2022/04/21 05:13:25;;;;;;;;;;;6.80;99.90;;;;;;5000735;28;19913;-67
2022/04/21 05:15:51;;;;;;;;;;;6.80;99.90;;;;;;4998854;28;20458;-66
2022/04/21 05:18:16;;;;;;;;;;;6.80;99.90;;;;;;5001039;28;19914;-68
2022/04/21 05:20:42;;;;;;;;;;;6.90;99.90;;;;;;4997190;28;19918;-71
2022/04/21 05:23:09;;;;;;;;;;;6.90;99.90;;;;;;4999853;28;19914;-70
2022/04/21 05:25:36;;;;;;;;;;;6.90;99.90;;;;;;4999785;28;19997;-70
2022/04/21 05:28:02;;;;;;;;;;;6.90;99.90;;;;;;4998078;28;19964;-70
2022/04/21 05:33:14;;;;;;;;;;;7.00;99.90;;;;;;5000659;28;19920;-70
2022/04/21 05:35:39;;;;;;;;;;;7.10;99.90;;;;;;4999592;28;20000;-70
2022/04/21 05:38:05;;;;;;;;;;;7.10;99.90;;;;;;5000498;28;20090;-69
2022/04/21 05:40:30;;;;;;;;;;;7.00;99.90;;;;;;5000229;28;19913;-70
2022/04/21 05:42:58;;;;;;;;;;;7.00;99.90;;;;;;5001245;28;20282;-70
2022/04/21 05:45:23;;;;;;;;;;;7.00;99.90;;;;;;4998776;28;19917;-69
2022/04/21 05:47:49;;;;;;;;;;;7.00;99.90;;;;;;5001378;28;19918;-69
2022/04/21 05:50:15;;;;;;;;;;;7.00;99.90;;;;;;5000940;28;20017;-70
2022/04/21 05:52:43;;;;;;;;;;;7.10;99.90;;;;;;5000842;28;19921;-69
2022/04/21 05:55:09;;;;;;;;;;;7.20;99.90;;;;;;5000678;28;20350;-70
2022/04/21 05:57:38;;;;;;;;;;;7.30;99.90;;;;;;5000018;28;20269;-70
2022/04/21 06:00:04;;;;;;;;;;;7.30;99.90;;;;;;5000821;28;19968;-70
2022/04/21 06:02:29;;;;;;;;;;;7.30;99.90;;;;;;4997208;28;20358;-70
2022/04/21 06:04:59;;;;;;;;;;;7.40;99.90;;;;;;5000427;28;19931;-70
2022/04/21 06:07:24;;;;;;;;;;;7.40;99.90;;;;;;4998775;28;19944;-69
2022/04/21 06:09:50;;;;;;;;;;;7.40;99.90;;;;;;5023003;23;19925;-70
2022/04/21 06:12:15;;;;;;;;;;;7.50;99.90;;;;;;5016992;28;19920;-70
2022/04/21 06:14:41;;;;;;;;;;;7.50;99.90;;;;;;5014392;28;19924;-70
2022/04/21 06:17:07;;;;;;;;;;;7.50;99.90;;;;;;5014035;28;20425;-72
2022/04/21 06:19:32;;;;;;;;;;;7.50;99.90;;;;;;5009981;28;19922;-72
2022/04/21 06:21:58;;;;;;;;;;;7.50;99.90;;;;;;4998220;28;20023;-72
2022/04/21 06:24:23;;;;;;;;;;;7.40;99.90;;;;;;4997975;28;19914;-72
2022/04/21 06:26:48;;;;;;;;;;;7.40;99.90;;;;;;4998201;28;20333;-71
2022/04/21 06:29:14;;;;;;;;;;;7.60;99.90;;;;;;4999119;28;20378;-71
2022/04/21 06:31:39;;;;;;;;;;;7.60;99.90;;;;;;4999020;28;19924;-69
2022/04/21 06:34:05;;;;;;;;;;;7.60;99.90;;;;;;4997678;28;19995;-70
2022/04/21 06:36:30;;;;;;;;;;;7.70;99.90;;;;;;4996542;28;20438;-70
2022/04/21 06:38:56;;;;;;;;;;;7.70;99.90;;;;;;4999478;28;19928;-70
2022/04/21 06:41:21;;;;;;;;;;;7.70;99.90;;;;;;4999174;28;20781;-70
2022/04/21 06:49:15;;;;;;;;;;;7.70;99.90;;;;;;4999116;28;20008;-70
2022/04/21 06:51:40;;;;;;;;;;;7.60;99.90;;;;;;4999726;28;20187;-68
2022/04/21 06:54:06;;;;;;;;;;;7.60;99.90;;;;;;5001727;28;20340;-70
2022/04/21 06:56:31;;;;;;;;;;;7.60;99.90;;;;;;5003628;28;19941;-71
2022/04/21 06:58:57;;;;;;;;;;;7.70;99.90;;;;;;5003697;28;19949;-71
2022/04/21 07:01:23;;;;;;;;;;;7.70;99.90;;;;;;5003421;28;19920;-68
2022/04/21 07:03:48;;;;;;;;;;;7.70;99.90;;;;;;5003279;28;20474;-70
2022/04/21 07:06:14;;;;;;;;;;;7.80;99.90;;;;;;5003136;28;19917;-71
2022/04/21 07:08:40;;;;;;;;;;;7.80;99.90;;;;;;5003483;28;20260;-72
2022/04/21 07:11:05;;;;;;;;;;;7.90;99.90;;;;;;5001632;28;19922;-70
2022/04/21 07:13:32;;;;;;;;;;;7.90;99.90;;;;;;5003768;28;19914;-70
2022/04/21 07:15:57;;;;;;;;;;;7.90;99.90;;;;;;5002630;28;19952;-69
2022/04/21 07:18:22;;;;;;;;;;;8.00;99.90;;;;;;5002979;28;20032;-70
2022/04/21 07:20:48;;;;;;;;;;;8.00;99.90;;;;;;5003167;28;20248;-69
2022/04/21 07:23:13;;;;;;;;;;;8.10;99.90;;;;;;5002957;28;20278;-69
2022/04/21 07:25:39;;;;;;;;;;;8.20;99.90;;;;;;5003248;28;19918;-69
2022/04/21 07:28:05;;;;;;;;;;;8.20;99.90;;;;;;5001509;28;19929;-70
2022/04/21 07:30:30;;;;;;;;;;;8.30;99.90;;;;;;5002643;28;19917;-68
2022/04/21 07:32:56;;;;;;;;;;;8.30;99.90;;;;;;5002475;28;19914;-68
2022/04/21 07:35:22;;;;;;;;;;;8.40;99.90;;;;;;5003585;28;19925;-67
2022/04/21 07:37:47;;;;;;;;;;;8.40;99.90;;;;;;5003221;28;19913;-66
2022/04/21 07:40:12;;;;;;;;;;;8.40;99.90;;;;;;5002537;28;20290;-67
2022/04/21 07:42:39;;;;;;;;;;;8.50;99.90;;;;;;5002548;28;20359;-67
2022/04/21 07:45:05;;;;;;;;;;;8.60;99.90;;;;;;5000552;28;20000;-68
2022/04/21 07:47:30;;;;;;;;;;;8.60;99.70;;;;;;5003529;28;19959;-69
2022/04/21 07:49:56;;;;;;;;;;;8.60;99.80;;;;;;5002184;28;20326;-71
2022/04/21 07:55:14;;;;;;;;;;;8.60;99.80;;;;;;5002549;28;19945;-71
2022/04/21 07:57:40;;;;;;;;;;;8.70;99.70;;;;;;5002160;28;20401;-73
2022/04/21 08:00:06;;;;;;;;;;;8.70;99.70;;;;;;5000702;28;19921;-72
2022/04/21 08:02:32;;;;;;;;;;;8.80;99.70;;;;;;5002126;28;20219;-72
2022/04/21 08:04:57;;;;;;;;;;;8.90;99.60;;;;;;5000573;28;19914;-71
2022/04/21 08:07:23;;;;;;;;;;;9.20;99.20;;;;;;5001645;28;19925;-71
2022/04/21 08:09:49;;;;;;;;;;;9.30;99.00;;;;;;5002513;28;19918;-70
2022/04/21 08:12:14;;;;;;;;;;;9.50;98.80;;;;;;5001651;28;20013;-71
2022/04/21 08:14:40;;;;;;;;;;;9.70;98.60;;;;;;5002036;28;19914;-68
2022/04/21 08:17:06;;;;;;;;;;;9.80;98.40;;;;;;4999731;28;19921;-69
2022/04/21 08:19:32;;;;;;;;;;;9.90;98.40;;;;;;5002049;28;19924;-69
2022/04/21 08:21:57;;;;;;;;;;;10.00;98.30;;;;;;5001285;28;19918;-74
2022/04/21 08:32:43;;;;;;;;;;;10.50;97.60;;;;;;5001906;28;19940;-72
2022/04/21 08:35:13;;;;;;;;;;;10.60;97.60;;;;;;5001406;28;19972;-72
2022/04/21 08:37:44;;;;;;;;;;;10.60;97.10;;;;;;5001476;28;19914;-74
2022/04/21 08:40:10;;;;;;;;;;;10.50;97.20;;;;;;5001474;28;19925;-74
2022/04/21 08:42:40;;;;;;;;;;;10.30;97.50;;;;;;5000799;28;20064;-73
2022/04/21 08:45:07;;;;;;;;;;;10.40;97.40;;;;;;5000627;28;19914;-74
2022/04/21 08:47:33;;;;;;;;;;;10.40;97.40;;;;;;5001483;28;19910;-72
2022/04/21 08:50:03;;;;;;;;;;;10.40;97.50;;;;;;5000344;28;19921;-73
2022/04/21 08:52:29;;;;;;;;;;;10.50;97.30;;;;;;5001228;28;19917;-70
2022/04/21 08:54:54;;;;;;;;;;;10.60;97.60;;;;;;5001329;28;19914;-72
2022/04/21 08:57:21;;;;;;;;;;;10.70;97.30;;;;;;5001398;28;19996;-73
2022/04/21 08:59:46;;;;;;;;;;;10.80;97.10;;;;;;5001010;28;19937;-71
2022/04/21 09:02:11;;;;;;;;;;;10.80;97.10;;;;;;5001085;28;20382;-72
2022/04/21 09:04:37;;;;;;;;;;;10.80;97.00;;;;;;5000374;28;19936;-71
2022/04/21 09:07:23;;;;;;;;;;;11.00;97.20;;;;;;5000031;28;19918;-70
2022/04/21 09:09:59;;;;;;;;;;;11.10;96.90;;;;;;5001264;28;19990;-72
2022/04/21 09:12:24;;;;;;;;;;;11.20;96.80;;;;;;5000217;28;19917;-71
2022/04/21 09:14:50;;;;;;;;;;;11.30;96.10;;;;;;5000750;28;19948;-71
2022/04/21 09:17:15;;;;;;;;;;;11.20;96.50;;;;;;4999926;28;19984;-70
2022/04/21 09:19:57;;;;;;;;;;;11.30;96.60;;;;;;4999955;28;20553;-70
2022/04/21 09:22:23;;;;;;;;;;;11.40;96.30;;;;;;4999935;28;19913;-72
2022/04/21 09:24:51;;;;;;;;;;;11.50;96.10;;;;;;4999677;28;20259;-74
2022/04/21 09:27:16;;;;;;;;;;;11.50;96.40;;;;;;5001011;28;19956;-72
2022/04/21 09:29:42;;;;;;;;;;;11.60;96.20;;;;;;5000209;28;20351;-73
2022/04/21 09:32:07;;;;;;;;;;;11.60;95.90;;;;;;5000182;28;19918;-74
2022/04/21 09:34:33;;;;;;;;;;;11.60;95.80;;;;;;4998545;28;19963;-71
2022/04/21 09:36:59;;;;;;;;;;;11.40;96.00;;;;;;5000427;28;19971;-70
2022/04/21 09:39:27;;;;;;;;;;;11.20;96.40;;;;;;5000528;28;19921;-70
2022/04/21 09:41:53;;;;;;;;;;;11.20;96.60;;;;;;4999143;28;20359;-72
2022/04/21 09:47:05;;;;;;;;;;;11.30;96.70;;;;;;5000065;28;19965;-72
2022/04/21 09:49:34;;;;;;;;;;;11.30;96.70;;;;;;5000007;28;19932;-71
2022/04/21 09:51:59;;;;;;;;;;;11.30;96.80;;;;;;4999370;28;19967;-71
2022/04/21 09:54:29;;;;;;;;;;;11.30;96.80;;;;;;5001285;28;19914;-70
2022/04/21 09:56:55;;;;;;;;;;;11.20;96.90;;;;;;4999604;28;20378;-70
2022/04/21 09:59:21;;;;;;;;;;;11.20;97.00;;;;;;5000301;28;19924;-70
2022/04/21 10:01:46;;;;;;;;;;;11.20;97.00;;;;;;5000173;28;19914;-70
2022/04/21 10:04:13;;;;;;;;;;;11.10;97.10;;;;;;5000190;28;19948;-71
2022/04/21 10:06:39;;;;;;;;;;;11.20;97.10;;;;;;4999469;28;19972;-73
2022/04/21 10:09:08;;;;;;;;;;;11.30;97.10;;;;;;4999352;28;19930;-73
2022/04/21 10:11:34;;;;;;;;;;;11.30;97.10;;;;;;4999283;28;19921;-72
2022/04/21 10:13:59;;;;;;;;;;;11.30;97.10;;;;;;4997771;28;20360;-70
2022/04/21 10:16:31;;;;;;;;;;;11.30;97.20;;;;;;4999683;28;19918;-72
2022/04/21 10:18:58;;;;;;;;;;;11.30;97.20;;;;;;4999441;28;20390;-69
2022/04/21 10:21:31;;;;;;;;;;;11.30;97.10;;;;;;5000004;28;19914;-69
2022/04/21 10:23:57;;;;;;;;;;;11.40;97.20;;;;;;5000726;28;19941;-69
2022/04/21 10:26:35;;;;;;;;;;;11.50;97.10;;;;;;5000342;28;20127;-76
2022/04/21 10:29:09;;;;;;;;;;;11.50;97.00;;;;;;4997876;28;20331;-76
2022/04/21 10:31:38;;;;;;;;;;;11.50;96.90;;;;;;5000074;28;19910;-77
2022/04/21 10:34:04;;;;;;;;;;;11.50;97.00;;;;;;4998927;28;19921;-70
2022/04/21 10:36:36;;;;;;;;;;;11.50;97.10;;;;;;4999835;28;20338;-70
2022/04/21 10:39:12;;;;;;;;;;;11.50;97.10;;;;;;4999596;28;19917;-70
2022/04/21 10:41:38;;;;;;;;;;;11.50;97.20;;;;;;5000236;28;19921;-70
2022/04/21 10:44:11;;;;;;;;;;;11.60;97.10;;;;;;4999199;28;19917;-70
2022/04/21 10:46:37;;;;;;;;;;;11.60;97.00;;;;;;4998498;28;19915;-71
2022/04/21 10:49:02;;;;;;;;;;;11.40;97.30;;;;;;4998349;28;19963;-70
2022/04/21 10:57:12;;;;;;;;;;;11.30;97.40;;;;;;4998917;28;19960;-70
2022/04/21 10:57:28;;;;;;;;;;;11.30;97.60;;;;;;4997540;28;20389;-71
2022/04/21 11:00:08;;;;;;;;;;;11.40;97.60;;;;;;4999008;28;19921;-69
2022/04/21 11:02:41;;;;;;;;;;;11.40;97.50;;;;;;4999464;28;19910;-69
2022/04/21 11:05:26;;;;;;;;;;;11.40;97.60;;;;;;4999438;28;19918;-69
2022/04/21 11:07:55;;;;;;;;;;;11.40;97.60;;;;;;4998561;28;19920;-70
2022/04/21 11:10:27;;;;;;;;;;;11.40;97.70;;;;;;4999018;28;19918;-69
2022/04/21 11:12:53;;;;;;;;;;;11.40;97.60;;;;;;4998626;28;19917;-69
2022/04/21 11:15:31;;;;;;;;;;;11.30;97.70;;;;;;4997885;28;19914;-69
2022/04/21 11:17:57;;;;;;;;;;;11.30;97.70;;;;;;4998531;28;19922;-70
2022/04/21 11:20:25;;;;;;;;;;;11.30;97.80;;;;;;4999446;28;19918;-70
2022/04/21 11:22:51;;;;;;;;;;;11.40;97.80;;;;;;4999079;28;19925;-70
2022/04/21 11:25:16;;;;;;;;;;;11.50;97.90;;;;;;5000466;28;19914;-68
2022/04/21 11:27:43;;;;;;;;;;;11.70;97.80;;;;;;4998647;28;19922;-68
2022/04/21 11:30:09;;;;;;;;;;;11.80;97.50;;;;;;4997841;28;19971;-68
2022/04/21 11:32:35;;;;;;;;;;;11.80;97.40;;;;;;4999284;28;19914;-67
2022/04/21 11:35:02;;;;;;;;;;;11.90;97.30;;;;;;5000074;28;20303;-67
2022/04/21 11:37:46;;;;;;;;;;;11.90;97.20;;;;;;5000417;28;19922;-67
2022/04/21 11:40:21;;;;;;;;;;;11.90;97.20;;;;;;5003213;28;19918;-68
2022/04/21 11:42:50;;;;;;;;;;;11.90;97.10;;;;;;5002172;28;19921;-67
2022/04/21 11:45:29;;;;;;;;;;;12.00;97.10;;;;;;5002480;28;19917;-67
2022/04/21 11:47:55;;;;;;;;;;;12.10;97.20;;;;;;5002445;28;19913;-69
2022/04/21 11:50:21;;;;;;;;;;;12.20;97.10;;;;;;5002223;28;20282;-67
2022/04/21 11:52:52;;;;;;;;;;;12.30;97.00;;;;;;5001978;28;19913;-67
2022/04/21 11:55:18;;;;;;;;;;;12.20;96.80;;;;;;5002912;28;19935;-67
2022/04/21 11:57:44;;;;;;;;;;;12.10;97.00;;;;;;5002713;28;19921;-67
2022/04/21 12:00:10;;;;;;;;;;;12.20;96.90;;;;;;5002408;28;19920;-68
2022/04/21 12:08:07;;;;;;;;;;;12.00;97.30;;;;;;5001650;28;19924;-68
2022/04/21 12:10:34;;;;;;;;;;;12.10;97.20;;;;;;5024840;23;19988;-70
2022/04/21 12:13:01;;;;;;;;;;;12.10;97.10;;;;;;5019691;28;20404;-70
2022/04/21 12:15:30;;;;;;;;;;;12.10;97.10;;;;;;5018390;28;19968;-68
2022/04/21 12:17:59;;;;;;;;;;;12.20;97.10;;;;;;5020159;28;19932;-68
2022/04/21 12:20:24;;;;;;;;;;;12.20;97.20;;;;;;5019409;28;19913;-68
2022/04/21 12:22:50;;;;;;;;;;;12.20;97.10;;;;;;5017984;28;19944;-68
2022/04/21 12:25:15;;;;;;;;;;;12.20;97.20;;;;;;5016802;28;19913;-68
2022/04/21 12:27:42;;;;;;;;;;;12.20;97.10;;;;;;5018831;28;19917;-68
2022/04/21 12:30:08;;;;;;;;;;;12.30;97.20;;;;;;5017734;28;20008;-69
2022/04/21 12:32:35;;;;;;;;;;;12.40;97.00;;;;;;5019520;28;19913;-68
2022/04/21 12:35:03;;;;;;;;;;;12.40;96.80;;;;;;5019237;28;19913;-71
2022/04/21 12:37:33;;;;;;;;;;;12.50;96.70;;;;;;5020023;28;19936;-71
2022/04/21 12:40:00;;;;;;;;;;;12.40;96.90;;;;;;5016554;28;19913;-70
2022/04/21 12:42:25;;;;;;;;;;;12.40;96.90;;;;;;5018788;28;19921;-68
2022/04/21 12:44:53;;;;;;;;;;;12.40;97.00;;;;;;5019898;28;19971;-69
2022/04/21 12:47:19;;;;;;;;;;;12.40;97.10;;;;;;5018480;28;19935;-70
2022/04/21 12:49:51;;;;;;;;;;;12.40;96.90;;;;;;5018076;28;20413;-70
2022/04/21 12:52:35;;;;;;;;;;;12.50;97.00;;;;;;5017273;28;19961;-74
2022/04/21 12:55:02;;;;;;;;;;;12.50;97.00;;;;;;5019976;28;20361;-73
2022/04/21 12:57:27;;;;;;;;;;;12.60;97.00;;;;;;5016823;28;19925;-72
2022/04/21 12:59:54;;;;;;;;;;;12.70;96.90;;;;;;5019886;28;19913;-72
2022/04/21 13:02:19;;;;;;;;;;;12.80;96.70;;;;;;5020010;28;20004;-68
2022/04/21 13:04:45;;;;;;;;;;;12.90;96.60;;;;;;5020124;28;20330;-64
2022/04/21 13:07:11;;;;;;;;;;;12.80;96.40;;;;;;5020539;28;19918;-64
2022/04/21 13:09:37;;;;;;;;;;;12.80;96.50;;;;;;5019533;28;19928;-67
2022/04/21 13:12:02;;;;;;;;;;;12.80;96.30;;;;;;5020603;28;19910;-67
2022/04/21 13:14:28;;;;;;;;;;;12.80;96.20;;;;;;5014827;28;20264;-69
2022/04/21 13:16:53;;;;;;;;;;;12.90;96.30;;;;;;5017684;28;19917;-70
2022/04/21 13:19:19;;;;;;;;;;;13.00;95.70;;;;;;5018849;28;19918;-70
2022/04/21 13:21:55;;;;;;;;;;;13.00;95.80;;;;;;5018861;28;19968;-70
2022/04/21 13:24:20;;;;;;;;;;;13.00;95.80;;;;;;5015137;28;20266;-69
2022/04/21 13:26:46;;;;;;;;;;;13.10;95.60;;;;;;5016303;28;19921;-69
2022/04/21 13:29:11;;;;;;;;;;;13.20;95.70;;;;;;5015813;28;19960;-68
2022/04/21 13:34:21;;;;;;;;;;;13.20;95.30;;;;;;5017563;28;19924;-68
2022/04/21 13:36:46;;;;;;;;;;;13.30;95.30;;;;;;5017609;28;20321;-68
2022/04/21 13:39:12;;;;;;;;;;;13.30;95.10;;;;;;5017244;28;19996;-71
2022/04/21 13:41:38;;;;;;;;;;;13.40;95.00;;;;;;5018149;28;19913;-71
2022/04/21 13:44:03;;;;;;;;;;;13.40;94.90;;;;;;5019226;28;20301;-68
2022/04/21 13:46:29;;;;;;;;;;;13.50;94.90;;;;;;5016486;28;20329;-69
2022/04/21 13:48:56;;;;;;;;;;;13.60;94.80;;;;;;5016181;28;19974;-69
2022/04/21 13:51:22;;;;;;;;;;;13.70;94.80;;;;;;5016344;28;19922;-69
2022/04/21 13:53:47;;;;;;;;;;;13.80;94.60;;;;;;5016616;28;20000;-69
2022/04/21 13:56:12;;;;;;;;;;;13.90;94.50;;;;;;5017813;28;19917;-69
2022/04/21 13:58:38;;;;;;;;;;;14.00;94.20;;;;;;5018180;28;20377;-68
2022/04/21 14:01:03;;;;;;;;;;;13.90;94.10;;;;;;5015558;28;19971;-70
2022/04/21 14:03:32;;;;;;;;;;;13.80;94.40;;;;;;5017159;28;20480;-69
2022/04/21 14:05:59;;;;;;;;;;;13.70;94.60;;;;;;5015387;28;20428;-70
2022/04/21 14:08:24;;;;;;;;;;;13.50;94.70;;;;;;5018702;28;19913;-70
2022/04/21 14:10:50;;;;;;;;;;;13.40;95.20;;;;;;5017617;28;20059;-69
2022/04/21 14:13:16;;;;;;;;;;;13.30;95.40;;;;;;5015861;28;19917;-70
2022/04/21 14:15:42;;;;;;;;;;;13.30;95.50;;;;;;5016691;28;19920;-70
2022/04/21 14:18:07;;;;;;;;;;;13.30;95.40;;;;;;5018228;28;19921;-68
2022/04/21 14:20:33;;;;;;;;;;;13.30;95.40;;;;;;5017869;28;20008;-68
2022/04/21 14:22:58;;;;;;;;;;;13.20;95.60;;;;;;5014479;28;19917;-69
2022/04/21 14:25:24;;;;;;;;;;;13.20;96.00;;;;;;5015357;28;19947;-69
2022/04/21 14:27:49;;;;;;;;;;;13.10;95.90;;;;;;5014949;28;19953;-68
2022/04/21 14:30:15;;;;;;;;;;;13.20;95.90;;;;;;5013705;28;19922;-68
2022/04/21 14:32:43;;;;;;;;;;;13.20;96.00;;;;;;5016926;28;19913;-67
2022/04/21 14:35:08;;;;;;;;;;;13.10;96.20;;;;;;5017137;28;19968;-68
2022/04/21 14:45:47;;;;;;;;;;;13.00;96.60;;;;;;5014571;28;19971;-68
2022/04/21 14:48:12;;;;;;;;;;;12.90;96.60;;;;;;5017929;28;19912;-68
2022/04/21 14:50:38;;;;;;;;;;;13.00;96.70;;;;;;5018903;28;19971;-68
2022/04/21 14:53:04;;;;;;;;;;;13.00;96.70;;;;;;5016473;28;20420;-68
2022/04/21 14:55:30;;;;;;;;;;;13.00;96.70;;;;;;5016073;28;19917;-68
2022/04/21 14:57:55;;;;;;;;;;;13.00;96.80;;;;;;5013734;28;20376;-68
2022/04/21 15:00:21;;;;;;;;;;;13.20;96.90;;;;;;5011564;28;20036;-66
2022/04/21 15:02:46;;;;;;;;;;;13.20;96.70;;;;;;5011873;28;19919;-68
2022/04/21 15:05:11;;;;;;;;;;;13.20;96.60;;;;;;5016105;28;19913;-66
2022/04/21 15:07:37;;;;;;;;;;;13.20;96.70;;;;;;5018886;28;19913;-66
2022/04/21 15:10:03;;;;;;;;;;;13.10;96.80;;;;;;5017511;28;19921;-66
2022/04/21 15:12:29;;;;;;;;;;;13.00;97.00;;;;;;5015486;28;20017;-66
2022/04/21 15:14:55;;;;;;;;;;;13.00;97.10;;;;;;5017618;28;20419;-66
2022/04/21 15:17:21;;;;;;;;;;;12.80;97.30;;;;;;5020001;28;19922;-66
2022/04/21 15:19:47;;;;;;;;;;;12.70;97.50;;;;;;5021461;28;19962;-66
2022/04/21 15:22:15;;;;;;;;;;;12.70;97.50;;;;;;5017326;28;20055;-66
2022/04/21 15:24:42;;;;;;;;;;;12.80;97.60;;;;;;5020357;28;20402;-65